Oiapoque, Brazil
Current Conditions -  °F | °C
As of 10:30 AM on Monday 20 Oct 2014 (Local Time) from SOCA Reporting Station
Broken Clouds Broken Clouds  
Wind Chill: 86°   Ceiling: 3700
Heat Index: 93°   Visibility: 6mi
Dew Point: 73°   Wind: 6mph
Humidity: 66%   Direction: 20°NNE
Pressure: 29.91"   Gusts: NA
Location:  3.84°N, 51.83°W
Report Text: SOCA 201330Z AUTO 02005KT 260V060 9999 FEW022 SCT030 BKN03730/23 Q1013
Loading
Personal Weather Stations






























Interactive Weather Map
Tropical Storm Tracking
New forecast layout! Learn more

10-Day Weather Forecast

Advertisements
Track Severe Weather on mobile